Eagle Harbor, New York
Current Conditions -  °F | °C
As of 10:08 AM on Friday 28 Nov 2014 (Local Time) from KROC Reporting Station
Light Snow Light Snow  
Wind Chill: 11°   Ceiling: 5000
Heat Index: 24°   Visibility: 2.5mi
Dew Point: 18°   Wind: 16mph
Humidity: 77%   Direction: 260°W
Pressure: 30.25"   Gusts: NA
Location:  43.2353°N, 78.214°W
Report Text: KROC 281508Z 26014KT 2 1/2SM -SN SCT020 BKN050 BKN100 M04/M08 A3025 RMK AO2 P0000 T10441078
Loading
Personal Weather Stations






























Interactive Weather Map New forecast layout! Learn more

10-Day Weather Forecast

Advertisements
Track Severe Weather on mobile